Time;durP1;ratioP1;P1;durP2;ratioP2;P2;SDS_P1;SDS_P2;PMS_P1;PMS_P2;Temp;Humidity;BMP_temperature;BMP_pressure;BME280_temperature;BME280_humidity;BME280_pressure;Samples;Min_cycle;Max_cycle;Signal;HPM_P1;HPM_P2
2023/02/04 00:00:21;;;;;;;16.90;11.40;;;;;;;-3.23;77.76;99817.34;105642;1254;60513;-76
2023/02/04 00:02:48;;;;;;;15.90;10.50;;;;;;;-3.17;77.87;99816.80;105729;1254;65625;-75
2023/02/04 00:05:16;;;;;;;12.60;9.00;;;;;;;-3.09;77.99;99814.46;105723;1259;62651;-76
2023/02/04 00:07:43;;;;;;;14.00;9.30;;;;;;;-2.98;78.21;99813.42;105442;1254;60515;-77
2023/02/04 00:10:12;;;;;;;12.30;8.70;;;;;;;-2.89;78.39;99810.88;105642;1260;66705;-76
2023/02/04 00:12:39;;;;;;;12.00;8.50;;;;;;;-2.80;78.55;99808.67;105551;1255;60623;-75
2023/02/04 00:15:07;;;;;;;12.20;8.60;;;;;;;-2.71;78.68;99809.75;105507;1262;65557;-76
2023/02/04 00:17:34;;;;;;;12.50;8.50;;;;;;;-2.64;78.67;99816.23;105716;1254;61110;-75
2023/02/04 00:20:01;;;;;;;10.20;7.50;;;;;;;-2.59;78.71;99813.48;105487;1254;60561;-76
2023/02/04 00:22:28;;;;;;;10.60;6.80;;;;;;;-2.54;78.68;99812.80;105853;1259;66771;-77
2023/02/04 00:24:55;;;;;;;8.20;6.70;;;;;;;-2.50;78.82;99816.11;105606;1256;60338;-77
2023/02/04 00:27:22;;;;;;;9.90;7.10;;;;;;;-2.45;78.90;99812.29;105586;1254;65413;-77
2023/02/04 00:29:49;;;;;;;8.80;6.80;;;;;;;-2.39;79.05;99810.37;105660;1254;60547;-77
2023/02/04 00:32:16;;;;;;;9.50;6.30;;;;;;;-2.33;79.13;99811.17;105657;1259;60508;-77
2023/02/04 00:34:43;;;;;;;10.80;7.00;;;;;;;-2.28;79.19;99808.23;105794;1259;66700;-77
2023/02/04 00:37:10;;;;;;;9.10;7.10;;;;;;;-2.22;79.25;99805.42;105409;1254;60536;-77
2023/02/04 00:39:37;;;;;;;8.30;6.10;;;;;;;-2.16;79.32;99804.70;105858;1259;65548;-76
2023/02/04 00:42:05;;;;;;;8.60;6.50;;;;;;;-2.11;79.37;99802.95;105712;1254;60511;-77
2023/02/04 00:44:35;;;;;;;8.00;6.40;;;;;;;-2.05;79.45;99799.27;105656;1254;60535;-77
2023/02/04 00:47:02;;;;;;;7.80;6.10;;;;;;;-1.99;79.51;99795.64;105636;1255;66802;-77
2023/02/04 00:49:29;;;;;;;6.90;5.70;;;;;;;-1.94;79.55;99799.23;105727;1259;60453;-77
2023/02/04 00:51:56;;;;;;;6.90;6.10;;;;;;;-1.91;79.53;99797.20;105716;1259;64712;-76
2023/02/04 00:54:23;;;;;;;7.60;5.80;;;;;;;-1.88;79.56;99797.80;105609;1254;60432;-77
2023/02/04 00:56:50;;;;;;;7.20;5.80;;;;;;;-1.86;79.62;99798.05;105596;1254;60454;-77
2023/02/04 00:59:17;;;;;;;7.10;5.90;;;;;;;-1.83;79.59;99800.54;105495;1262;66792;-77
2023/02/04 01:01:43;;;;;;;6.30;5.50;;;;;;;-1.80;79.58;99800.95;105705;1254;60527;-76
2023/02/04 01:04:11;;;;;;;8.80;6.70;;;;;;;-1.78;79.67;99800.31;105688;1260;65446;-77
2023/02/04 01:06:38;;;;;;;8.60;6.70;;;;;;;-1.75;79.57;99804.01;105380;1253;60611;-76
2023/02/04 01:09:05;;;;;;;7.70;6.40;;;;;;;-1.73;79.55;99803.62;105625;1257;60751;-76
2023/02/04 01:11:32;;;;;;;7.40;6.10;;;;;;;-1.71;79.49;99805.45;105640;1254;65574;-76
2023/02/04 01:13:59;;;;;;;9.60;6.60;;;;;;;-1.70;79.59;99805.39;105510;1257;60549;-76
2023/02/04 01:16:26;;;;;;;7.30;6.10;;;;;;;-1.70;79.52;99802.63;105489;1262;65606;-75
2023/02/04 01:18:54;;;;;;;7.50;5.20;;;;;;;-1.69;79.59;99804.16;105414;1257;60433;-80
2023/02/04 01:21:22;;;;;;;9.40;7.30;;;;;;;-1.68;79.55;99801.86;105439;1260;60444;-75
2023/02/04 01:23:50;;;;;;;8.20;6.00;;;;;;;-1.68;79.47;99803.06;105721;1259;66387;-76
2023/02/04 01:26:18;;;;;;;7.80;6.40;;;;;;;-1.68;79.43;99805.98;105752;1260;60575;-76
2023/02/04 01:28:45;;;;;;;6.20;5.50;;;;;;;-1.68;79.39;99806.00;105746;1256;65543;-76
2023/02/04 01:31:12;;;;;;;7.80;5.80;;;;;;;-1.67;79.42;99807.19;105611;1259;60433;-74
2023/02/04 01:33:39;;;;;;;7.20;5.60;;;;;;;-1.68;79.39;99810.48;105774;1254;60447;-75
2023/02/04 01:36:06;;;;;;;7.60;5.60;;;;;;;-1.68;79.37;99814.30;105769;1259;66557;-75
2023/02/04 01:38:33;;;;;;;7.30;5.80;;;;;;;-1.69;79.40;99810.86;105632;1260;60370;-75
2023/02/04 01:41:00;;;;;;;8.40;6.40;;;;;;;-1.68;79.40;99811.55;105822;1259;65260;-76
2023/02/04 01:43:27;;;;;;;8.70;6.30;;;;;;;-1.67;79.47;99809.95;105813;1257;60511;-74
2023/02/04 01:45:56;;;;;;;9.10;6.90;;;;;;;-1.67;79.41;99811.14;105665;1254;60523;-74
2023/02/04 01:48:22;;;;;;;10.00;7.30;;;;;;;-1.66;79.42;99811.80;105733;1260;66685;-74
2023/02/04 01:50:51;;;;;;;8.80;7.10;;;;;;;-1.67;79.36;99811.83;105590;1260;60539;-75
2023/02/04 01:53:21;;;;;;;10.80;7.80;;;;;;;-1.69;79.29;99813.45;105629;1260;64566;-74
2023/02/04 01:55:49;;;;;;;11.40;8.70;;;;;;;-1.70;79.27;99817.98;105638;1254;60540;-74
2023/02/04 01:58:16;;;;;;;10.90;8.20;;;;;;;-1.71;79.30;99818.55;105594;1257;60530;-75
2023/02/04 02:00:43;;;;;;;12.10;7.90;;;;;;;-1.73;79.22;99817.42;105495;1262;66603;-74
2023/02/04 02:03:10;;;;;;;11.90;8.50;;;;;;;-1.74;79.26;99819.86;105673;1260;60395;-75
2023/02/04 02:05:47;;;;;;;11.40;8.00;;;;;;;-1.76;79.32;99823.19;105676;1259;65443;-78
2023/02/04 02:08:14;;;;;;;12.60;8.50;;;;;;;-1.77;79.33;99821.33;105483;1262;60536;-79
2023/02/04 02:10:44;;;;;;;12.30;8.50;;;;;;;-1.77;79.34;99821.67;105710;1262;60568;-77
2023/02/04 02:13:14;;;;;;;13.40;8.70;;;;;;;-1.76;79.36;99822.16;105713;1260;66809;-78
2023/02/04 02:15:41;;;;;;;14.20;8.80;;;;;;;-1.76;79.34;99827.33;105766;1259;60539;-75
2023/02/04 02:18:08;;;;;;;10.90;8.10;;;;;;;-1.76;79.32;99832.34;105452;1259;65576;-75
2023/02/04 02:20:35;;;;;;;12.00;8.10;;;;;;;-1.75;79.29;99831.98;105681;1260;60417;-74
2023/02/04 02:23:26;;;;;;;10.00;7.20;;;;;;;-1.76;79.27;99832.17;105915;1254;60450;-74
2023/02/04 02:25:53;;;;;;;10.10;7.70;;;;;;;-1.78;79.32;99833.47;105709;1259;66730;-75
2023/02/04 02:28:21;;;;;;;9.70;7.50;;;;;;;-1.80;79.32;99833.70;105404;1262;60434;-75
2023/02/04 02:30:48;;;;;;;9.00;6.80;;;;;;;-1.78;79.32;99836.41;105471;1255;65539;-72
2023/02/04 02:33:17;;;;;;;9.40;7.50;;;;;;;-1.78;79.31;99833.46;105727;1254;60799;-78
2023/02/04 02:35:47;;;;;;;9.50;7.30;;;;;;;-1.77;79.33;99830.65;105762;1259;60533;-79
2023/02/04 02:38:17;;;;;;;8.30;7.00;;;;;;;-1.75;79.28;99831.27;105721;1260;66701;-79
2023/02/04 02:40:46;;;;;;;8.20;6.80;;;;;;;-1.74;79.30;99829.52;105707;1254;60453;-80
2023/02/04 02:43:14;;;;;;;8.00;7.20;;;;;;;-1.74;79.32;99828.48;105766;1256;65279;-78
2023/02/04 02:45:41;;;;;;;9.30;6.90;;;;;;;-1.72;79.31;99828.26;105796;1254;60473;-72
2023/02/04 02:48:10;;;;;;;8.70;7.00;;;;;;;-1.68;79.38;99827.57;105906;1255;61429;-77
2023/02/04 02:50:36;;;;;;;9.80;7.70;;;;;;;-1.65;79.37;99828.84;105806;1259;66513;-77
2023/02/04 02:53:08;;;;;;;10.80;7.40;;;;;;;-1.64;79.29;99828.45;105780;1260;60516;-72
2023/02/04 02:55:35;;;;;;;10.40;7.80;;;;;;;-1.63;79.34;99830.67;105759;1255;65786;-78
2023/02/04 02:58:02;;;;;;;10.70;8.10;;;;;;;-1.63;79.24;99831.18;105681;1258;60462;-75
2023/02/04 03:00:29;;;;;;;11.00;8.20;;;;;;;-1.64;79.19;99827.08;105910;1255;60507;-75
2023/02/04 03:02:59;;;;;;;11.10;7.90;;;;;;;-1.63;79.18;99823.27;105717;1259;66492;-74
2023/02/04 03:05:28;;;;;;;10.40;8.10;;;;;;;-1.61;79.21;99825.58;105799;1259;60404;-76
2023/02/04 03:07:57;;;;;;;9.60;7.70;;;;;;;-1.59;79.29;99824.80;105814;1258;65276;-75
2023/02/04 03:10:24;;;;;;;8.40;6.60;;;;;;;-1.57;79.22;99824.57;105718;1260;61086;-74
2023/02/04 03:12:50;;;;;;;8.00;6.30;;;;;;;-1.58;79.16;99827.38;105724;1257;60374;-76
2023/02/04 03:15:17;;;;;;;9.40;6.80;;;;;;;-1.59;79.16;99825.48;105694;1260;65572;-75
2023/02/04 03:17:45;;;;;;;9.40;7.30;;;;;;;-1.58;79.18;99824.27;105716;1263;60539;-75
2023/02/04 03:20:12;;;;;;;8.20;6.30;;;;;;;-1.58;79.20;99822.88;105736;1259;65421;-74
2023/02/04 03:22:39;;;;;;;7.60;5.90;;;;;;;-1.58;79.21;99821.47;105769;1260;60338;-74
2023/02/04 03:25:07;;;;;;;8.00;6.20;;;;;;;-1.59;79.13;99820.86;105735;1254;60469;-75
2023/02/04 03:27:34;;;;;;;8.30;6.10;;;;;;;-1.63;79.04;99822.55;105778;1258;66777;-75
2023/02/04 03:30:01;;;;;;;8.90;6.80;;;;;;;-1.64;79.09;99818.98;105783;1259;60524;-74
2023/02/04 03:32:28;;;;;;;6.80;6.00;;;;;;;-1.65;79.17;99821.23;105739;1254;65664;-76
2023/02/04 03:34:55;;;;;;;7.10;5.60;;;;;;;-1.64;79.16;99822.77;105770;1254;60695;-76
2023/02/04 03:37:21;;;;;;;7.50;5.60;;;;;;;-1.64;79.14;99818.80;105772;1259;60505;-75
2023/02/04 03:39:48;;;;;;;7.50;6.20;;;;;;;-1.64;79.09;99820.88;105764;1260;66740;-75
2023/02/04 03:42:16;;;;;;;8.20;6.10;;;;;;;-1.64;79.11;99824.84;105781;1255;60292;-75
2023/02/04 03:44:43;;;;;;;7.20;6.10;;;;;;;-1.64;79.17;99826.55;105813;1260;64267;-76
2023/02/04 03:47:09;;;;;;;8.20;6.60;;;;;;;-1.65;79.14;99822.77;105740;1260;60500;-75
2023/02/04 03:49:37;;;;;;;6.90;6.10;;;;;;;-1.65;79.13;99820.88;105786;1255;60540;-75
2023/02/04 03:52:04;;;;;;;6.70;6.00;;;;;;;-1.63;79.10;99820.84;105750;1260;66641;-75
2023/02/04 03:54:31;;;;;;;7.20;5.80;;;;;;;-1.60;79.04;99822.30;105713;1259;60507;-78
2023/02/04 03:56:58;;;;;;;7.10;5.60;;;;;;;-1.60;79.08;99825.55;105586;1259;65511;-75
2023/02/04 03:59:25;;;;;;;6.00;5.20;;;;;;;-1.60;79.01;99821.41;105754;1257;60574;-75
2023/02/04 04:01:52;;;;;;;7.00;5.50;;;;;;;-1.60;78.97;99821.07;105771;1255;60450;-76
2023/02/04 04:04:19;;;;;;;6.00;4.90;;;;;;;-1.61;78.93;99823.69;105803;1255;65812;-75
2023/02/04 04:06:46;;;;;;;6.50;5.10;;;;;;;-1.61;78.85;99824.91;105761;1260;60424;-76
2023/02/04 04:09:13;;;;;;;7.80;5.80;;;;;;;-1.64;78.80;99827.76;105773;1260;65528;-76
2023/02/04 04:11:40;;;;;;;8.10;5.50;;;;;;;-1.64;78.81;99832.95;105728;1254;60357;-75
2023/02/04 04:14:07;;;;;;;8.50;6.40;;;;;;;-1.64;78.79;99835.88;105760;1257;60542;-76
2023/02/04 04:16:35;;;;;;;6.70;5.50;;;;;;;-1.63;78.81;99834.66;105739;1257;66603;-76
2023/02/04 04:19:01;;;;;;;7.20;5.90;;;;;;;-1.63;78.76;99836.89;105701;1259;60516;-77
2023/02/04 04:21:28;;;;;;;6.90;5.40;;;;;;;-1.62;78.80;99840.14;105732;1254;65541;-76
2023/02/04 04:23:55;;;;;;;7.10;5.90;;;;;;;-1.63;78.67;99841.73;105734;1257;60474;-75
2023/02/04 04:26:22;;;;;;;6.60;5.30;;;;;;;-1.64;78.65;99840.20;105793;1254;60540;-74
2023/02/04 04:28:49;;;;;;;6.80;5.30;;;;;;;-1.65;78.64;99840.73;105734;1259;66530;-76
2023/02/04 04:31:16;;;;;;;6.10;5.30;;;;;;;-1.65;78.60;99838.15;105705;1260;60446;-75
2023/02/04 04:33:43;;;;;;;7.10;5.40;;;;;;;-1.66;78.57;99840.60;105705;1260;65350;-75
2023/02/04 04:36:10;;;;;;;6.20;5.30;;;;;;;-1.69;78.52;99842.14;105745;1254;60424;-76
2023/02/04 04:38:37;;;;;;;6.10;5.20;;;;;;;-1.71;78.49;99843.08;105787;1259;60546;-76
2023/02/04 04:41:04;;;;;;;5.80;5.20;;;;;;;-1.73;78.43;99844.52;105727;1258;66530;-75
2023/02/04 04:43:30;;;;;;;6.70;5.30;;;;;;;-1.75;78.39;99844.39;105655;1260;60516;-76
2023/02/04 04:45:57;;;;;;;8.50;6.50;;;;;;;-1.76;78.40;99846.83;105719;1260;65423;-76
2023/02/04 04:48:24;;;;;;;8.40;6.40;;;;;;;-1.77;78.35;99851.38;105640;1255;60545;-76
2023/02/04 04:50:51;;;;;;;8.80;6.20;;;;;;;-1.80;78.31;99853.21;105760;1254;60537;-76
2023/02/04 04:53:18;;;;;;;8.80;6.50;;;;;;;-1.82;78.31;99851.08;105696;1255;66678;-76
2023/02/04 04:55:45;;;;;;;8.80;6.90;;;;;;;-1.85;78.28;99853.77;105728;1254;60574;-76
2023/02/04 04:58:12;;;;;;;8.60;6.00;;;;;;;-1.87;78.31;99853.64;105706;1254;65337;-76
2023/02/04 05:00:40;;;;;;;9.90;7.70;;;;;;;-1.88;78.20;99853.70;105649;1257;60455;-76
2023/02/04 05:03:07;;;;;;;10.80;8.40;;;;;;;-1.92;78.27;99857.81;105881;1254;60491;-76
2023/02/04 05:05:38;;;;;;;10.40;7.70;;;;;;;-1.90;78.35;99862.74;105726;1254;65526;-76
2023/02/04 05:08:11;;;;;;;9.00;7.40;;;;;;;-1.91;78.34;99868.65;105859;1254;60459;-76
2023/02/04 05:10:43;;;;;;;8.30;6.60;;;;;;;-1.94;78.36;99872.36;105633;1254;65354;-75
2023/02/04 05:13:10;;;;;;;8.00;6.70;;;;;;;-1.93;78.34;99877.19;105665;1254;60348;-76
2023/02/04 05:15:37;;;;;;;8.40;6.30;;;;;;;-1.95;78.40;99881.21;105735;1257;60597;-76
2023/02/04 05:18:04;;;;;;;6.90;5.70;;;;;;;-1.96;78.43;99879.18;105730;1258;66714;-76
2023/02/04 05:20:31;;;;;;;7.50;5.70;;;;;;;-1.97;78.46;99883.17;105708;1255;60956;-76
2023/02/04 05:23:02;;;;;;;8.80;6.30;;;;;;;-1.97;78.43;99890.27;105752;1254;65395;-76
2023/02/04 05:25:31;;;;;;;6.90;6.00;;;;;;;-1.98;78.44;99894.60;105726;1254;61976;-77
2023/02/04 05:27:58;;;;;;;8.10;6.30;;;;;;;-1.96;78.55;99896.77;105672;1257;60432;-75
2023/02/04 05:30:25;;;;;;;9.90;7.40;;;;;;;-1.95;78.49;99892.77;105621;1260;66487;-75
2023/02/04 05:32:52;;;;;;;9.60;7.30;;;;;;;-1.95;78.58;99894.15;105550;1255;60543;-76
2023/02/04 05:35:19;;;;;;;11.70;9.30;;;;;;;-1.93;78.60;99899.95;105760;1260;64517;-76
2023/02/04 05:37:46;;;;;;;14.90;10.90;;;;;;;-1.91;78.61;99902.80;105695;1254;60806;-76
2023/02/04 05:40:12;;;;;;;14.50;10.90;;;;;;;-1.88;78.59;99906.67;105668;1255;60431;-76
2023/02/04 05:42:40;;;;;;;11.90;8.80;;;;;;;-1.87;78.61;99908.34;105715;1259;66831;-76
2023/02/04 05:45:13;;;;;;;11.00;8.50;;;;;;;-1.86;78.61;99908.65;105675;1258;60419;-76
2023/02/04 05:47:40;;;;;;;9.00;6.90;;;;;;;-1.87;78.51;99910.07;105480;1263;64713;-75
2023/02/04 05:50:07;;;;;;;9.00;6.60;;;;;;;-1.86;78.46;99913.67;105701;1257;60541;-76
2023/02/04 05:52:34;;;;;;;10.20;8.40;;;;;;;-1.83;78.46;99921.14;105663;1254;60364;-75
2023/02/04 05:55:00;;;;;;;11.10;9.20;;;;;;;-1.82;78.55;99921.66;105629;1254;65847;-76
2023/02/04 05:57:27;;;;;;;9.30;7.20;;;;;;;-1.79;78.49;99925.15;105659;1254;60818;-76
2023/02/04 05:59:54;;;;;;;9.60;7.20;;;;;;;-1.78;78.30;99926.68;105642;1261;65393;-75
2023/02/04 06:02:21;;;;;;;10.70;7.50;;;;;;;-1.79;78.23;99929.81;105444;1259;60527;-75
2023/02/04 06:04:48;;;;;;;9.30;7.10;;;;;;;-1.79;78.21;99933.96;105609;1254;60428;-75
2023/02/04 06:07:15;;;;;;;10.70;8.00;;;;;;;-1.79;78.14;99936.01;105635;1257;66592;-77
2023/02/04 06:09:41;;;;;;;10.70;8.90;;;;;;;-1.80;78.14;99936.39;105728;1254;60508;-76
2023/02/04 06:12:09;;;;;;;13.40;10.10;;;;;;;-1.82;78.07;99942.00;105602;1261;64324;-76
2023/02/04 06:14:36;;;;;;;15.50;11.80;;;;;;;-1.83;78.13;99945.83;105820;1254;60431;-76
2023/02/04 06:17:03;;;;;;;23.10;14.90;;;;;;;-1.81;78.19;99946.30;105703;1254;60424;-77
2023/02/04 06:19:31;;;;;;;23.40;13.50;;;;;;;-1.81;78.25;99943.33;105754;1254;66808;-76
2023/02/04 06:21:57;;;;;;;26.80;15.60;;;;;;;-1.79;78.22;99946.55;105715;1254;60543;-76
2023/02/04 06:24:24;;;;;;;25.20;14.60;;;;;;;-1.79;78.17;99948.09;105675;1257;65528;-78
2023/02/04 06:26:51;;;;;;;25.00;14.40;;;;;;;-1.79;78.15;99952.40;105715;1258;60345;-77
2023/02/04 06:29:17;;;;;;;32.00;15.60;;;;;;;-1.76;78.19;99957.48;105625;1260;61105;-77
2023/02/04 06:31:44;;;;;;;28.70;14.90;;;;;;;-1.74;78.23;99957.94;105556;1259;66437;-75
2023/02/04 06:34:11;;;;;;;30.20;15.30;;;;;;;-1.73;78.24;99958.95;105763;1254;60515;-75
2023/02/04 06:36:38;;;;;;;28.50;14.40;;;;;;;-1.73;78.15;99961.55;105693;1254;65656;-76
2023/02/04 06:39:05;;;;;;;27.30;14.10;;;;;;;-1.74;78.13;99968.45;105699;1254;60503;-76
2023/02/04 06:41:32;;;;;;;25.20;13.20;;;;;;;-1.71;78.21;99969.58;105598;1254;60882;-76
2023/02/04 06:43:59;;;;;;;20.90;12.40;;;;;;;-1.66;78.25;99974.38;105693;1254;66448;-74
2023/02/04 06:46:25;;;;;;;18.50;11.20;;;;;;;-1.64;78.29;99982.44;105685;1254;60537;-76
2023/02/04 06:48:52;;;;;;;14.60;9.10;;;;;;;-1.61;78.35;99984.58;105731;1254;65615;-76
2023/02/04 06:51:19;;;;;;;13.60;9.50;;;;;;;-1.57;78.35;99984.94;105843;1258;60545;-76
2023/02/04 06:53:46;;;;;;;17.70;13.40;;;;;;;-1.52;78.34;99985.27;105624;1260;60527;-75
2023/02/04 06:56:13;;;;;;;18.30;12.70;;;;;;;-1.48;78.25;99982.55;105574;1260;67060;-73
2023/02/04 06:58:40;;;;;;;18.20;13.20;;;;;;;-1.46;78.24;99984.71;105471;1254;60543;-77
2023/02/04 07:01:07;;;;;;;15.40;10.70;;;;;;;-1.43;78.26;99985.15;105429;1264;65496;-75
2023/02/04 07:03:34;;;;;;;20.60;16.10;;;;;;;-1.41;78.19;99983.67;105735;1254;60546;-76
2023/02/04 07:06:01;;;;;;;23.00;19.00;;;;;;;-1.38;78.17;99984.95;105768;1260;60537;-74
2023/02/04 07:08:28;;;;;;;21.70;17.20;;;;;;;-1.33;78.22;99984.27;105718;1260;66706;-73
2023/02/04 07:10:56;;;;;;;11.60;9.30;;;;;;;-1.29;78.27;99980.79;105630;1259;60674;-73
2023/02/04 07:13:23;;;;;;;14.20;11.10;;;;;;;-1.26;78.10;99981.20;105563;1254;64553;-75
2023/02/04 07:15:52;;;;;;;9.70;8.20;;;;;;;-1.23;78.05;99984.74;105535;1258;60374;-76
2023/02/04 07:18:20;;;;;;;13.50;11.10;;;;;;;-1.22;78.20;99982.30;105613;1257;60844;-77
2023/02/04 07:20:47;;;;;;;12.60;10.60;;;;;;;-1.21;78.12;99988.64;105598;1260;66768;-76
2023/02/04 07:23:14;;;;;;;13.70;11.00;;;;;;;-1.20;78.10;99989.26;105612;1259;60539;-76
2023/02/04 07:25:42;;;;;;;29.50;20.30;;;;;;;-1.19;78.04;99992.16;105715;1260;64534;-76
2023/02/04 07:28:10;;;;;;;31.40;23.10;;;;;;;-1.13;78.01;99991.63;105842;1254;60488;-77
2023/02/04 07:30:37;;;;;;;24.10;17.10;;;;;;;-1.07;77.98;99986.73;105690;1260;60364;-76
2023/02/04 07:33:04;;;;;;;23.00;18.50;;;;;;;-1.02;77.94;99986.38;105464;1254;66813;-75
2023/02/04 07:35:31;;;;;;;29.60;18.60;;;;;;;-0.99;77.83;99987.29;105732;1259;60338;-75
2023/02/04 07:37:57;;;;;;;12.90;9.80;;;;;;;-0.96;77.73;99986.31;105709;1257;64541;-75
2023/02/04 07:40:24;;;;;;;10.60;8.40;;;;;;;-0.94;77.71;99987.10;105706;1260;60453;-76
2023/02/04 07:42:51;;;;;;;26.60;19.70;;;;;;;-0.93;77.71;99991.17;105462;1263;60303;-73
2023/02/04 07:45:18;;;;;;;15.40;11.30;;;;;;;-0.90;77.67;99991.23;105721;1254;66340;-75
2023/02/04 07:47:45;;;;;;;10.90;8.10;;;;;;;-0.89;77.56;99991.73;105694;1257;60537;-74
2023/02/04 07:50:12;;;;;;;8.70;6.50;;;;;;;-0.89;77.43;99997.06;105356;1254;65517;-73
2023/02/04 07:52:39;;;;;;;14.80;10.60;;;;;;;-0.88;77.29;99997.02;105717;1254;60548;-72
2023/02/04 07:55:07;;;;;;;9.10;7.00;;;;;;;-0.86;77.22;100002.33;105733;1254;60441;-75
2023/02/04 07:57:34;;;;;;;7.50;6.20;;;;;;;-0.83;77.10;100002.92;105683;1259;66524;-74
2023/02/04 08:00:01;;;;;;;7.00;5.80;;;;;;;-0.82;77.03;100006.01;105827;1254;60556;-74
2023/02/04 08:02:28;;;;;;;7.10;5.40;;;;;;;-0.81;77.08;100006.83;105684;1256;65381;-74
2023/02/04 08:04:55;;;;;;;8.20;6.80;;;;;;;-0.81;77.07;100013.20;105483;1254;60625;-75
2023/02/04 08:07:21;;;;;;;8.70;6.60;;;;;;;-0.80;76.95;100010.76;105804;1254;60422;-75
2023/02/04 08:09:48;;;;;;;8.60;6.70;;;;;;;-0.79;76.89;100011.38;105686;1254;66529;-75
2023/02/04 08:12:15;;;;;;;7.90;6.10;;;;;;;-0.78;76.80;100011.86;105632;1254;60542;-74
2023/02/04 08:14:42;;;;;;;8.70;6.90;;;;;;;-0.73;76.83;100013.77;105767;1255;65299;-74
2023/02/04 08:17:09;;;;;;;9.60;6.90;;;;;;;-0.70;76.85;100013.81;105893;1254;60449;-74
2023/02/04 08:19:36;;;;;;;8.40;6.70;;;;;;;-0.67;76.88;100016.61;105655;1259;161896;-72
2023/02/04 08:22:03;;;;;;;8.30;6.60;;;;;;;-0.61;76.96;100017.09;105918;1254;66702;-76
2023/02/04 08:24:29;;;;;;;7.60;6.10;;;;;;;-0.55;76.96;100016.88;105750;1254;60553;-73
2023/02/04 08:32:56;;;;;;;7.40;5.80;;;;;;;-0.36;76.86;100024.39;102694;1294;600340;-74
2023/02/04 08:35:25;;;;;;;8.20;6.40;;;;;;;-0.33;76.74;100024.62;104973;1264;59413;-73
2023/02/04 08:37:53;;;;;;;7.70;6.00;;;;;;;-0.32;76.57;100027.34;105154;1269;59202;-76
2023/02/04 08:40:22;;;;;;;8.70;7.40;;;;;;;-0.31;76.57;100030.23;105010;1266;65152;-77
2023/02/04 08:42:50;;;;;;;9.10;7.50;;;;;;;-0.29;76.66;100031.05;105161;1266;59830;-76
2023/02/04 08:45:18;;;;;;;14.70;11.00;;;;;;;-0.24;76.44;100030.84;104767;1266;65572;-78
2023/02/04 08:47:46;;;;;;;16.60;12.40;;;;;;;-0.22;76.30;100030.08;105151;1267;219461;-71
2023/02/04 08:50:15;;;;;;;31.80;21.30;;;;;;;-0.22;76.33;100029.89;105295;1264;59401;-70
2023/02/04 08:52:43;;;;;;;25.40;18.30;;;;;;;-0.21;76.34;100034.84;105230;1267;65086;-70
2023/02/04 08:55:11;;;;;;;15.60;11.10;;;;;;;-0.17;76.36;100029.35;105303;1264;59145;-69
2023/02/04 08:57:40;;;;;;;11.30;9.50;;;;;;;-0.13;76.34;100027.95;105122;1264;65988;-69
2023/02/04 09:00:10;;;;;;;13.10;7.80;;;;;;;-0.08;76.36;100028.11;104922;1263;59548;-69
2023/02/04 09:02:39;;;;;;;10.20;7.50;;;;;;;-0.04;76.38;100024.65;104747;1271;59575;-70
2023/02/04 09:05:07;;;;;;;10.20;7.70;;;;;;;-0.02;76.34;100021.95;104991;1264;66037;-71
2023/02/04 09:07:36;;;;;;;10.30;8.00;;;;;;;0.01;76.33;100021.88;105243;1264;59745;-68
2023/02/04 09:10:05;;;;;;;9.70;7.80;;;;;;;0.05;76.28;100020.31;104897;1270;65323;-69
2023/02/04 09:12:33;;;;;;;10.90;8.10;;;;;;;0.11;76.27;100019.88;105107;1268;59568;-70
2023/02/04 09:15:01;;;;;;;11.70;9.00;;;;;;;0.15;76.25;100017.61;105474;1263;59754;-69
2023/02/04 09:17:32;;;;;;;8.90;8.00;;;;;;;0.19;76.16;100014.85;105215;1268;66084;-69
2023/02/04 09:20:01;;;;;;;11.40;8.30;;;;;;;0.26;76.10;100015.77;105191;1268;59978;-69
2023/02/04 09:22:29;;;;;;;9.90;7.90;;;;;;;0.32;75.93;100015.34;105214;1264;65552;-69
2023/02/04 09:24:57;;;;;;;9.60;7.60;;;;;;;0.36;75.94;100013.08;105283;1264;59686;-70
2023/02/04 09:27:26;;;;;;;10.70;7.80;;;;;;;0.42;75.84;100013.51;105197;1264;59651;-69
2023/02/04 09:29:54;;;;;;;9.90;8.00;;;;;;;0.48;75.79;100012.73;105236;1265;65931;-70
2023/02/04 09:32:22;;;;;;;9.90;7.80;;;;;;;0.52;75.73;100011.69;104975;1264;62410;-69
2023/02/04 09:34:51;;;;;;;8.90;7.10;;;;;;;0.54;75.60;100008.63;105245;1264;65561;-69
2023/02/04 09:37:19;;;;;;;10.40;7.70;;;;;;;0.58;75.40;100010.05;105200;1263;59625;-69
2023/02/04 09:39:47;;;;;;;9.40;7.70;;;;;;;0.59;75.29;100007.91;105198;1263;59688;-69
2023/02/04 09:42:15;;;;;;;10.30;8.10;;;;;;;0.60;75.14;100005.62;104918;1266;65998;-69
2023/02/04 09:44:44;;;;;;;12.00;8.20;;;;;;;0.61;75.09;100000.89;104913;1270;59604;-71
2023/02/04 09:47:14;;;;;;;10.30;8.00;;;;;;;0.61;74.92;100000.73;104923;1266;64599;-70
2023/02/04 09:49:45;;;;;;;9.10;7.60;;;;;;;0.60;74.71;100000.95;104972;1270;59736;-70
2023/02/04 09:52:14;;;;;;;11.20;8.00;;;;;;;0.59;74.66;100006.71;105155;1264;59660;-70
2023/02/04 09:54:43;;;;;;;11.10;8.80;;;;;;;0.64;74.70;100007.70;105240;1268;65861;-70
2023/02/04 09:57:18;;;;;;;10.50;8.40;;;;;;;0.77;75.05;100007.79;105011;1264;59882;-70
2023/02/04 09:59:47;;;;;;;11.80;8.80;;;;;;;0.90;75.00;100006.15;105169;1268;65646;-70
2023/02/04 10:02:23;;;;;;;12.20;9.30;;;;;;;1.06;75.10;100004.70;104948;1271;59618;-69
2023/02/04 10:04:56;;;;;;;13.10;9.30;;;;;;;1.32;75.36;100001.59;104968;1266;59647;-70
2023/02/04 10:07:26;;;;;;;10.70;8.80;;;;;;;1.52;75.15;99999.11;104941;1267;64872;-69
2023/02/04 10:09:54;;;;;;;12.00;10.00;;;;;;;1.65;74.73;100001.90;105157;1266;59644;-70
2023/02/04 10:12:23;;;;;;;12.30;9.70;;;;;;;1.68;74.17;100001.92;104947;1268;64353;-69
2023/02/04 10:14:51;;;;;;;12.90;9.90;;;;;;;1.68;73.71;100005.41;104899;1270;59683;-70
2023/02/04 10:17:21;;;;;;;13.20;11.10;;;;;;;1.69;73.32;100007.98;105096;1264;59680;-70
2023/02/04 10:19:49;;;;;;;13.30;10.10;;;;;;;1.63;73.03;100006.37;105817;1257;65612;-69
2023/02/04 10:22:19;;;;;;;11.80;9.70;;;;;;;1.65;72.75;100008.70;105861;1256;59763;-70
2023/02/04 10:24:47;;;;;;;16.40;10.80;;;;;;;1.68;72.60;100009.05;105854;1253;65523;-70
2023/02/04 10:27:15;;;;;;;12.70;10.60;;;;;;;1.81;72.81;100009.80;105762;1258;59533;-70
2023/02/04 10:29:57;;;;;;;11.10;9.30;;;;;;;2.03;73.10;100011.83;105777;1254;59661;-70
2023/02/04 10:32:30;;;;;;;10.60;8.40;;;;;;;2.23;72.98;100009.59;105784;1258;66050;-70
2023/02/04 10:35:00;;;;;;;11.10;9.90;;;;;;;2.41;72.70;100013.74;105872;1257;59654;-70
2023/02/04 10:37:29;;;;;;;11.30;9.40;;;;;;;2.54;72.53;100015.45;105827;1254;65624;-70
2023/02/04 10:39:58;;;;;;;9.50;8.10;;;;;;;2.61;71.93;100014.07;105800;1258;59536;-70
2023/02/04 10:42:27;;;;;;;9.60;8.30;;;;;;;2.63;71.38;100014.50;105816;1253;59661;-70
2023/02/04 10:44:56;;;;;;;8.80;7.30;;;;;;;2.71;71.25;100015.11;105781;1257;66236;-70
2023/02/04 10:47:27;;;;;;;7.90;6.50;;;;;;;2.85;71.25;100015.05;105868;1253;59714;-70
2023/02/04 10:50:15;;;;;;;7.30;6.60;;;;;;;2.96;70.87;100017.09;105853;1253;66057;-70
2023/02/04 10:52:46;;;;;;;7.40;6.30;;;;;;;3.09;70.71;100017.09;105707;1254;59710;-70
2023/02/04 10:55:17;;;;;;;7.90;6.20;;;;;;;3.25;70.56;100018.29;105856;1257;59622;-70
2023/02/04 10:57:46;;;;;;;8.00;6.10;;;;;;;3.44;70.46;100016.52;105795;1253;64928;-70
2023/02/04 11:00:22;;;;;;;7.10;6.00;;;;;;;3.70;70.38;100016.82;105849;1254;59411;-70
2023/02/04 11:03:06;;;;;;;7.20;5.90;;;;;;;3.97;70.12;100025.19;105770;1253;65788;-70
2023/02/04 11:05:35;;;;;;;7.20;5.10;;;;;;;4.20;69.53;100027.66;105739;1256;59614;-71
2023/02/04 11:08:26;;;;;;;7.10;6.00;;;;;;;4.33;68.66;100027.96;105751;1257;59542;-70
2023/02/04 11:10:57;;;;;;;6.40;5.30;;;;;;;4.35;67.80;100032.58;105916;1257;65727;-70
2023/02/04 11:13:27;;;;;;;5.70;5.10;;;;;;;4.26;67.04;100035.52;105779;1253;60088;-70
2023/02/04 11:16:16;;;;;;;6.20;5.40;;;;;;;4.06;66.24;100036.70;105708;1254;65553;-70
2023/02/04 11:18:45;;;;;;;6.00;5.30;;;;;;;3.85;65.92;100038.80;105819;1258;59624;-70
2023/02/04 11:21:26;;;;;;;6.00;5.00;;;;;;;3.66;65.78;100044.23;105847;1253;59638;-70
2023/02/04 11:24:10;;;;;;;6.50;5.70;;;;;;;3.48;65.60;100042.96;105832;1253;64963;-69
2023/02/04 11:26:39;;;;;;;6.60;5.50;;;;;;;3.34;65.44;100043.71;105859;1257;59862;-70
2023/02/04 11:29:14;;;;;;;7.40;5.30;;;;;;;3.23;65.10;100043.65;105890;1253;65553;-71